createdAt,value
2022-08-05T00:00:00.317Z,95599.94
2022-08-05T00:02:07.662Z,95595.47
2022-08-05T00:04:10.854Z,95597.78
2022-08-05T00:06:27.809Z,95602.44
2022-08-05T00:08:36.318Z,95612.72
2022-08-05T00:10:39.233Z,95608.13
2022-08-05T00:12:55.671Z,95601.84
2022-08-05T00:15:53.915Z,95606.88
2022-08-05T00:17:24.001Z,95607.59
2022-08-05T00:19:33.460Z,95599.06
2022-08-05T00:21:36.861Z,95587.88
2022-08-05T00:23:45.798Z,95605.28
2022-08-05T00:25:49.794Z,95610.25
2022-08-05T00:27:56.769Z,95609.34
2022-08-05T00:30:03.165Z,95606.59
2022-08-05T00:32:12.597Z,95603.81
2022-08-05T00:34:56.798Z,95609.00
2022-08-05T00:37:10.726Z,95604.75
2022-08-05T00:39:03.901Z,95601.81
2022-08-05T00:41:11.628Z,95607.00
2022-08-05T00:43:15.339Z,95606.84
2022-08-05T00:45:28.210Z,95608.63
2022-08-05T00:47:56.817Z,95602.84
2022-08-05T00:50:00.460Z,95604.34
2022-08-05T00:52:03.276Z,95600.91
2022-08-05T00:54:06.306Z,95599.50
2022-08-05T00:56:09.457Z,95604.25
2022-08-05T00:58:13.284Z,95578.63
2022-08-05T01:00:16.931Z,95605.50
2022-08-05T01:02:21.289Z,95603.84
2022-08-05T01:04:30.212Z,95596.56
2022-08-05T01:06:33.009Z,95601.97
2022-08-05T01:08:43.081Z,95603.41
2022-08-05T01:10:52.850Z,95580.78
2022-08-05T01:13:05.389Z,95603.50
2022-08-05T01:15:35.816Z,95599.44
2022-08-05T01:17:46.669Z,95613.34
2022-08-05T01:20:12.289Z,95620.91
2022-08-05T01:22:28.905Z,95633.59
2022-08-05T01:24:49.372Z,95649.81
2022-08-05T01:27:19.060Z,95650.41
2022-08-05T01:29:29.039Z,95653.34
2022-08-05T01:31:42.745Z,95649.69
2022-08-05T01:33:53.608Z,95654.41
2022-08-05T01:36:00.217Z,95650.59
2022-08-05T01:38:06.937Z,95652.69
2022-08-05T01:40:12.386Z,95668.38
2022-08-05T01:42:18.518Z,95666.03
2022-08-05T01:44:24.757Z,95621.00
2022-08-05T01:46:42.962Z,95664.09
2022-08-05T01:48:51.202Z,95613.13
2022-08-05T01:50:56.369Z,95665.81
2022-08-05T01:53:02.711Z,95669.47
2022-08-05T01:55:10.449Z,95675.41
2022-08-05T01:58:11.162Z,95679.78
2022-08-05T01:59:41.540Z,95675.56
2022-08-05T02:01:54.799Z,95672.47
2022-08-05T02:03:59.770Z,95676.13
2022-08-05T02:06:33.576Z,95677.75
2022-08-05T02:08:31.147Z,95657.84
2022-08-05T02:10:42.818Z,95682.88
2022-08-05T02:12:52.572Z,95687.78
2022-08-05T02:15:05.510Z,95690.97
2022-08-05T02:18:14.568Z,95692.91
2022-08-05T02:19:47.656Z,95572.88
2022-08-05T02:21:55.291Z,95685.28
2022-08-05T02:24:03.016Z,95689.16
2022-08-05T02:26:11.759Z,95696.25
2022-08-05T02:28:16.023Z,95704.38
2022-08-05T02:30:38.608Z,95707.13
2022-08-05T02:33:00.355Z,95710.16
2022-08-05T02:35:13.333Z,95707.34
2022-08-05T02:37:18.412Z,95724.25
2022-08-05T02:39:25.981Z,95711.44
2022-08-05T02:41:36.355Z,95712.16
2022-08-05T02:44:02.478Z,95723.81
2022-08-05T02:46:16.831Z,95731.22
2022-08-05T02:48:31.445Z,95737.75
2022-08-05T02:50:36.068Z,95746.84
2022-08-05T02:52:39.720Z,95745.69
2022-08-05T02:54:50.752Z,95748.78
2022-08-05T02:56:56.134Z,95740.94
2022-08-05T02:59:00.790Z,95744.25
2022-08-05T03:01:04.559Z,95716.41
2022-08-05T03:03:10.535Z,95751.38
2022-08-05T03:05:14.834Z,95743.75
2022-08-05T03:07:24.722Z,95747.03
2022-08-05T03:09:51.617Z,95753.56
2022-08-05T03:11:58.014Z,95749.66
2022-08-05T03:14:03.383Z,95753.72
2022-08-05T03:16:07.657Z,95760.78
2022-08-05T03:18:13.765Z,95750.88
2022-08-05T03:20:20.268Z,95747.47
2022-08-05T03:22:31.871Z,95747.28
2022-08-05T03:24:35.513Z,95743.91
2022-08-05T03:26:38.612Z,95736.03
2022-08-05T03:28:41.422Z,95733.63
2022-08-05T03:30:45.690Z,95741.81
2022-08-05T03:32:50.437Z,95709.19
2022-08-05T03:34:55.447Z,95743.38
2022-08-05T03:36:58.263Z,95726.72
2022-08-05T03:39:07.718Z,95751.50
2022-08-05T03:41:11.096Z,95751.00
2022-08-05T03:43:15.890Z,95755.81
2022-08-05T03:45:57.403Z,95762.47
2022-08-05T03:48:00.122Z,95758.44
2022-08-05T03:50:04.648Z,95758.75
2022-08-05T03:52:48.515Z,95759.16
2022-08-05T03:56:01.098Z,95763.66
2022-08-05T03:57:16.751Z,95765.88
2022-08-05T03:59:24.780Z,95751.50
2022-08-05T04:01:32.287Z,95742.66
2022-08-05T04:03:38.094Z,95740.69
2022-08-05T04:05:44.532Z,95741.03
2022-08-05T04:07:58.004Z,95736.34
2022-08-05T04:10:03.167Z,95737.63
2022-08-05T04:12:23.587Z,95660.53
2022-08-05T04:14:29.836Z,95725.47
2022-08-05T04:16:35.382Z,95691.88
2022-08-05T04:18:39.610Z,95726.97
2022-08-05T04:20:44.057Z,95737.28
2022-08-05T04:22:47.764Z,95749.94
2022-08-05T04:24:52.616Z,95405.19
2022-08-05T04:26:55.613Z,95775.31
2022-08-05T04:29:07.106Z,95789.06
2022-08-05T04:31:10.579Z,95805.44
2022-08-05T04:33:14.027Z,95799.16
2022-08-05T04:35:19.690Z,95759.78
2022-08-05T04:38:01.429Z,95798.22
2022-08-05T04:39:46.927Z,95808.38
2022-08-05T04:41:55.997Z,95824.28
2022-08-05T04:43:58.872Z,95722.00
2022-08-05T04:46:04.062Z,95832.75
2022-08-05T04:48:10.256Z,95855.66
2022-08-05T04:50:34.469Z,95664.69
2022-08-05T04:52:41.834Z,95878.72
2022-08-05T04:54:49.466Z,95894.53
2022-08-05T04:56:55.266Z,95898.09
2022-08-05T04:59:00.252Z,95889.94
2022-08-05T05:02:06.057Z,95848.41
2022-08-05T05:03:45.913Z,95905.25
2022-08-05T05:06:40.326Z,95908.22
2022-08-05T05:08:26.558Z,95906.31
2022-08-05T05:10:35.169Z,95911.53
2022-08-05T05:12:37.950Z,95915.16
2022-08-05T05:14:49.533Z,95910.94
2022-08-05T05:16:54.568Z,95926.75
2022-08-05T05:19:18.577Z,95923.19
2022-08-05T05:21:20.257Z,95908.94
2022-08-05T05:23:24.402Z,95914.59
2022-08-05T05:25:32.776Z,95921.28
2022-08-05T05:27:45.547Z,95913.75
2022-08-05T05:30:04.416Z,95926.75
2022-08-05T05:32:12.732Z,95806.69
2022-08-05T05:34:26.602Z,95933.69
2022-08-05T05:36:30.316Z,95936.09
2022-08-05T05:38:35.708Z,95935.66
2022-08-05T05:40:39.298Z,95716.66
2022-08-05T05:42:47.015Z,95941.84
2022-08-05T05:44:50.121Z,95880.44
2022-08-05T05:46:52.937Z,95925.13
2022-08-05T05:48:56.075Z,95927.09
2022-08-05T05:50:58.872Z,95931.13
2022-08-05T05:53:22.138Z,95939.28
2022-08-05T05:55:52.429Z,95951.34
2022-08-05T05:57:52.626Z,95917.22
2022-08-05T05:59:56.044Z,95944.13
2022-08-05T06:01:59.822Z,95953.06
2022-08-05T06:04:03.879Z,95960.63
2022-08-05T06:06:07.346Z,95954.97
2022-08-05T06:08:10.540Z,95954.31
2022-08-05T06:10:14.514Z,95958.31
2022-08-05T06:12:20.047Z,95965.81
2022-08-05T06:14:22.896Z,95960.81
2022-08-05T06:16:32.715Z,95956.69
2022-08-05T06:18:39.869Z,95959.28
2022-08-05T06:20:42.648Z,95934.56
2022-08-05T06:22:51.231Z,95942.34
2022-08-05T06:24:54.315Z,95944.22
2022-08-05T06:26:58.481Z,95955.09
2022-08-05T06:29:03.670Z,95956.19
2022-08-05T06:31:11.184Z,95949.47
2022-08-05T06:33:21.413Z,95952.22
2022-08-05T06:36:06.807Z,95958.50
2022-08-05T06:38:11.339Z,95967.13
2022-08-05T06:40:20.731Z,95965.06
2022-08-05T06:42:24.164Z,95960.78
2022-08-05T06:44:30.139Z,95966.81
2022-08-05T06:46:33.343Z,95963.84
2022-08-05T06:48:55.273Z,95905.94
2022-08-05T06:51:00.420Z,95948.72
2022-08-05T06:53:03.768Z,95954.94
2022-08-05T06:55:14.597Z,95844.00
2022-08-05T06:57:58.140Z,95958.84
2022-08-05T06:59:42.540Z,95967.22
2022-08-05T07:01:59.241Z,95969.94
2022-08-05T07:04:03.159Z,95977.13
2022-08-05T07:06:14.184Z,95975.53
2022-08-05T07:08:18.078Z,95977.69
2022-08-05T07:10:21.909Z,95983.94
2022-08-05T07:12:53.694Z,95983.69
2022-08-05T07:15:34.208Z,95995.09
2022-08-05T07:18:01.237Z,95996.41
2022-08-05T07:20:32.039Z,95959.03
2022-08-05T07:22:29.151Z,95993.16
2022-08-05T07:24:35.052Z,95927.25
2022-08-05T07:26:47.340Z,96001.81
2022-08-05T07:28:51.456Z,96000.09
2022-08-05T07:30:55.610Z,96011.66
2022-08-05T07:32:58.621Z,96001.47
2022-08-05T07:35:01.450Z,96000.06
2022-08-05T07:37:24.458Z,96005.59
2022-08-05T07:40:04.191Z,96004.66
2022-08-05T07:42:13.932Z,95997.16
2022-08-05T07:44:19.039Z,95997.41
2022-08-05T07:46:25.137Z,95998.75
2022-08-05T07:49:01.878Z,95999.66
2022-08-05T07:50:51.563Z,95994.97
2022-08-05T07:52:54.442Z,95994.81
2022-08-05T07:54:57.562Z,95838.69
2022-08-05T07:57:22.860Z,96003.09
2022-08-05T07:59:38.908Z,95998.81
2022-08-05T08:01:52.128Z,96003.22
2022-08-05T08:04:00.333Z,96003.16
2022-08-05T08:06:04.612Z,96010.47
2022-08-05T08:08:12.253Z,95993.94
2022-08-05T08:10:15.461Z,95923.63
2022-08-05T08:12:37.350Z,95951.56
2022-08-05T08:14:42.695Z,96010.47
2022-08-05T08:16:53.639Z,96009.19
2022-08-05T08:18:56.719Z,96003.84
2022-08-05T08:21:03.833Z,96004.97
2022-08-05T08:23:07.522Z,96010.75
2022-08-05T08:26:00.108Z,96001.72
2022-08-05T08:27:54.091Z,95892.25
2022-08-05T08:30:05.066Z,95992.16
2022-08-05T08:32:27.897Z,95960.56
2022-08-05T08:34:33.259Z,95989.16
2022-08-05T08:36:47.611Z,95985.69
2022-08-05T08:38:56.115Z,95985.41
2022-08-05T08:41:01.524Z,95978.16
2022-08-05T08:44:56.416Z,95966.53
2022-08-05T08:45:29.944Z,95928.66
2022-08-05T08:48:05.481Z,95962.34
2022-08-05T08:50:13.032Z,95955.03
2022-08-05T08:52:26.524Z,95908.97
2022-08-05T08:54:29.683Z,95946.31
2022-08-05T08:56:33.326Z,95951.09
2022-08-05T08:58:44.672Z,95949.03
2022-08-05T09:00:51.520Z,95943.50
2022-08-05T09:02:56.619Z,95942.97
2022-08-05T09:05:17.917Z,95941.75
2022-08-05T09:07:28.779Z,95938.47
2022-08-05T09:09:35.474Z,95949.91
2022-08-05T09:11:52.649Z,95837.91
2022-08-05T09:14:09.264Z,95942.47
2022-08-05T09:16:21.328Z,95930.81
2022-08-05T09:18:31.435Z,95937.56
2022-08-05T09:20:36.327Z,95942.88
2022-08-05T09:23:07.778Z,95948.31
2022-08-05T09:25:13.869Z,95938.81
2022-08-05T09:28:04.480Z,95937.78
2022-08-05T09:30:02.255Z,95932.81
2022-08-05T09:32:43.021Z,95929.91
2022-08-05T09:34:49.301Z,95932.78
2022-08-05T09:36:54.944Z,95929.63
2022-08-05T09:39:01.326Z,95925.34
2022-08-05T09:41:07.269Z,95922.94
2022-08-05T09:43:28.045Z,95924.44
2022-08-05T09:46:07.604Z,95928.03
2022-08-05T09:48:21.060Z,95925.25
2022-08-05T09:50:38.814Z,95923.09
2022-08-05T09:52:48.418Z,95932.59
2022-08-05T09:54:58.775Z,95924.72
2022-08-05T09:57:02.037Z,95924.75
2022-08-05T09:59:07.049Z,95931.50
2022-08-05T10:01:15.613Z,95919.25
2022-08-05T10:03:51.825Z,95928.28
2022-08-05T10:06:15.682Z,95927.84
2022-08-05T10:08:37.769Z,95920.47
2022-08-05T10:10:54.552Z,95917.94
2022-08-05T10:13:00.152Z,95932.69
2022-08-05T10:15:20.854Z,95867.59
2022-08-05T10:17:37.366Z,95918.28
2022-08-05T10:20:03.796Z,95927.44
2022-08-05T10:22:09.106Z,95925.44
2022-08-05T10:24:19.761Z,95933.00
2022-08-05T10:26:32.619Z,95928.25
2022-08-05T10:28:50.897Z,95919.50
2022-08-05T10:32:47.817Z,95920.28
2022-08-05T10:33:28.824Z,95915.09
2022-08-05T10:35:33.782Z,95918.28
2022-08-05T10:37:45.808Z,95909.13
2022-08-05T10:40:03.116Z,95912.28
2022-08-05T10:42:33.402Z,95915.47
2022-08-05T10:44:39.170Z,95909.09
2022-08-05T10:46:47.012Z,95934.56
2022-08-05T10:49:02.699Z,95904.63
2022-08-05T10:51:22.009Z,95894.59
2022-08-05T10:53:54.911Z,95903.31
2022-08-05T10:56:14.906Z,95893.00
2022-08-05T10:58:36.015Z,95899.75
2022-08-05T11:00:55.425Z,95903.91
2022-08-05T11:03:23.251Z,95846.72
2022-08-05T11:05:31.560Z,95909.38
2022-08-05T11:08:02.605Z,95871.06
2022-08-05T11:10:04.131Z,95835.84
2022-08-05T11:12:45.351Z,95903.78
2022-08-05T11:15:19.842Z,95905.59
2022-08-05T11:17:57.171Z,95904.41
2022-08-05T11:20:11.436Z,95854.50
2022-08-05T11:22:42.764Z,95919.53
2022-08-05T11:24:50.763Z,95642.81
2022-08-05T11:27:50.886Z,95919.78
2022-08-05T11:30:00.828Z,95911.88
2022-08-05T11:32:26.371Z,95920.50
2022-08-05T11:34:47.202Z,95909.22
2022-08-05T11:36:55.047Z,95811.72
2022-08-05T11:38:59.858Z,95918.91
2022-08-05T11:41:34.314Z,95911.88
2022-08-05T11:44:00.890Z,95904.31
2022-08-05T11:46:27.191Z,95824.13
2022-08-05T11:48:14.730Z,95902.75
2022-08-05T11:50:17.827Z,95904.56
2022-08-05T11:52:29.264Z,95901.50
2022-08-05T11:54:34.989Z,95900.22
2022-08-05T11:56:50.291Z,95897.50
2022-08-05T11:58:56.304Z,95899.06
2022-08-05T12:01:03.474Z,95798.38
2022-08-05T12:03:29.650Z,95885.94
2022-08-05T12:05:39.818Z,95894.97
2022-08-05T12:08:07.814Z,95891.72
2022-08-05T12:10:13.741Z,95884.75
2022-08-05T12:12:23.258Z,95845.84
2022-08-05T12:14:39.309Z,95851.81
2022-08-05T12:16:48.285Z,95825.47
2022-08-05T12:18:53.109Z,95894.91
2022-08-05T12:20:56.798Z,95864.88
2022-08-05T12:23:09.491Z,95869.47
2022-08-05T12:25:14.206Z,95865.75
2022-08-05T12:27:32.886Z,95864.28
2022-08-05T12:29:39.079Z,95867.78
2022-08-05T12:31:52.984Z,95859.75
2022-08-05T12:33:57.344Z,95858.94
2022-08-05T12:36:02.294Z,95859.22
2022-08-05T12:38:07.347Z,95857.34
2022-08-05T12:40:26.533Z,95856.38
2022-08-05T12:42:32.059Z,95786.38
2022-08-05T12:44:35.216Z,95810.72
2022-08-05T12:46:39.230Z,95854.84
2022-08-05T12:48:43.499Z,95859.88
2022-08-05T12:51:21.838Z,95846.97
2022-08-05T12:53:37.038Z,95839.63
2022-08-05T12:55:42.360Z,95843.50
2022-08-05T12:58:38.657Z,95840.16
2022-08-05T13:02:02.844Z,95845.28
2022-08-05T13:02:44.096Z,95840.50
2022-08-05T13:04:56.337Z,95842.03
2022-08-05T13:07:01.097Z,95838.38
2022-08-05T13:09:08.745Z,95829.31
2022-08-05T13:12:01.139Z,95828.63
2022-08-05T13:14:06.133Z,95748.91
2022-08-05T13:16:12.548Z,95819.19
2022-08-05T13:18:19.741Z,95830.47
2022-08-05T13:20:34.181Z,95826.22
2022-08-05T13:22:39.076Z,95725.44
2022-08-05T13:24:57.556Z,95821.22
2022-08-05T13:27:01.193Z,95815.41
2022-08-05T13:29:05.143Z,95808.41
2022-08-05T13:31:11.158Z,95804.84
2022-08-05T13:34:22.453Z,95794.97
2022-08-05T13:35:47.531Z,95796.34
2022-08-05T13:37:55.758Z,95794.19
2022-08-05T13:40:16.699Z,95697.59
2022-08-05T13:42:22.532Z,95742.56
2022-08-05T13:44:27.990Z,95778.50
2022-08-05T13:46:50.941Z,95776.53
2022-08-05T13:48:57.716Z,95776.13
2022-08-05T13:51:08.461Z,95753.75
2022-08-05T13:53:15.737Z,95770.94
2022-08-05T13:55:41.864Z,95679.44
2022-08-05T13:57:48.531Z,95765.72
2022-08-05T13:59:55.424Z,95770.28
2022-08-05T14:02:01.335Z,95777.47
2022-08-05T14:04:22.349Z,95768.41
2022-08-05T14:06:30.899Z,95769.69
2022-08-05T14:08:33.745Z,95678.44
2022-08-05T14:10:38.785Z,95773.81
2022-08-05T14:12:48.630Z,95760.16
2022-08-05T14:14:52.165Z,95753.88
2022-08-05T14:16:55.373Z,95760.22
2022-08-05T14:19:04.483Z,95763.53
2022-08-05T14:22:07.517Z,95600.78
2022-08-05T14:23:36.353Z,95768.28
2022-08-05T14:25:44.957Z,95787.34
2022-08-05T14:27:49.373Z,95824.66
2022-08-05T14:29:52.227Z,95864.34
2022-08-05T14:32:13.025Z,95979.28
2022-08-05T14:34:17.880Z,95973.88
2022-08-05T14:36:26.560Z,95992.19
2022-08-05T14:38:34.061Z,95963.13
2022-08-05T14:40:38.903Z,95920.56
2022-08-05T14:42:42.361Z,95902.88
2022-08-05T14:44:45.818Z,95627.94
2022-08-05T14:46:48.585Z,95884.34
2022-08-05T14:48:51.710Z,95874.56
2022-08-05T14:50:55.810Z,95864.56
2022-08-05T14:53:00.229Z,95862.69
2022-08-05T14:55:06.386Z,95863.19
2022-08-05T14:57:13.464Z,95866.63
2022-08-05T14:59:16.850Z,95865.16
2022-08-05T15:01:24.179Z,95853.81
2022-08-05T15:03:42.379Z,95854.56
2022-08-05T15:06:07.049Z,95852.44
2022-08-05T15:08:17.930Z,95847.63
2022-08-05T15:10:34.923Z,95841.31
2022-08-05T15:12:58.017Z,95788.84
2022-08-05T15:15:00.673Z,95734.03
2022-08-05T15:17:04.842Z,95865.25
2022-08-05T15:19:07.727Z,95859.88
2022-08-05T15:21:26.069Z,95856.53
2022-08-05T15:23:33.259Z,95844.38
2022-08-05T15:25:51.637Z,95856.97
2022-08-05T15:27:56.656Z,95856.72
2022-08-05T15:29:59.469Z,95846.28
2022-08-05T15:32:03.285Z,95855.66
2022-08-05T15:34:31.952Z,95769.91
2022-08-05T15:36:29.634Z,95846.97
2022-08-05T15:38:40.840Z,95844.69
2022-08-05T15:41:03.466Z,95854.22
2022-08-05T15:43:19.758Z,95856.56
2022-08-05T15:45:38.896Z,95726.59
2022-08-05T15:47:43.703Z,95857.22
2022-08-05T15:49:56.605Z,95862.06
2022-08-05T15:52:13.444Z,95857.84
2022-08-05T15:54:19.305Z,95864.63
2022-08-05T15:56:23.842Z,95868.56
2022-08-05T15:58:28.652Z,95444.84
2022-08-05T16:00:50.920Z,95851.63
2022-08-05T16:02:54.594Z,95853.94
2022-08-05T16:04:57.767Z,95835.66
2022-08-05T16:07:00.605Z,95874.66
2022-08-05T16:09:04.155Z,95866.75
2022-08-05T16:11:07.323Z,95863.69
2022-08-05T16:13:12.349Z,95866.06
2022-08-05T16:15:22.559Z,95564.34
2022-08-05T16:17:25.612Z,95869.66
2022-08-05T16:20:03.062Z,95878.06
2022-08-05T16:22:00.360Z,95833.88
2022-08-05T16:24:04.361Z,95888.50
2022-08-05T16:26:12.006Z,95900.69
2022-08-05T16:28:17.938Z,95902.22
2022-08-05T16:30:26.038Z,95904.97
2022-08-05T16:32:29.921Z,95906.25
2022-08-05T16:34:33.043Z,95914.38
2022-08-05T16:36:36.304Z,95910.97
2022-08-05T16:38:54.704Z,95872.13
2022-08-05T16:41:01.427Z,95923.19
2022-08-05T16:43:04.494Z,95922.03
2022-08-05T16:46:04.153Z,95660.75
2022-08-05T16:47:40.839Z,95941.75
2022-08-05T16:49:56.650Z,95920.88
2022-08-05T16:51:59.471Z,95906.66
2022-08-05T16:54:16.119Z,95918.41
2022-08-05T16:56:21.888Z,95918.56
2022-08-05T16:58:26.153Z,95919.38
2022-08-05T17:00:34.471Z,95923.63
2022-08-05T17:02:38.016Z,95916.16
2022-08-05T17:04:40.840Z,95924.06
2022-08-05T17:06:43.759Z,95928.34
2022-08-05T17:08:56.030Z,95926.41
2022-08-05T17:11:00.449Z,95869.53
2022-08-05T17:13:03.558Z,95922.50
2022-08-05T17:15:07.598Z,95923.75
2022-08-05T17:17:14.811Z,95918.41
2022-08-05T17:19:18.232Z,95879.38
2022-08-05T17:21:21.094Z,94917.22
2022-08-05T17:24:03.113Z,95962.59
2022-08-05T17:25:49.557Z,95947.22
2022-08-05T17:27:54.641Z,95868.69
2022-08-05T17:29:59.737Z,95869.50
2022-08-05T17:32:03.641Z,95934.47
2022-08-05T17:34:08.774Z,95877.41
2022-08-05T17:36:32.799Z,95863.28
2022-08-05T17:38:35.017Z,95953.16
2022-08-05T17:40:38.352Z,95880.06
2022-08-05T17:42:50.480Z,95960.09
2022-08-05T17:44:54.430Z,95971.19
2022-08-05T17:46:57.300Z,95972.69
2022-08-05T17:49:00.282Z,95974.75
2022-08-05T17:51:08.966Z,95987.41
2022-08-05T17:53:12.154Z,95982.69
2022-08-05T17:55:15.137Z,95983.84
2022-08-05T17:57:18.520Z,95985.19
2022-08-05T17:59:22.638Z,95987.75
2022-08-05T18:01:26.439Z,96005.63
2022-08-05T18:03:59.024Z,96006.53
2022-08-05T18:06:01.960Z,96012.13
2022-08-05T18:08:06.665Z,96011.97
2022-08-05T18:10:20.363Z,95976.47
2022-08-05T18:12:24.710Z,95973.00
2022-08-05T18:14:27.830Z,96023.50
2022-08-05T18:16:31.624Z,96020.50
2022-08-05T18:18:39.612Z,96039.41
2022-08-05T18:20:42.783Z,96026.75
2022-08-05T18:22:54.765Z,95995.81
2022-08-05T18:25:01.469Z,96041.59
2022-08-05T18:27:04.368Z,96051.13
2022-08-05T18:29:16.758Z,96058.34
2022-08-05T18:31:19.977Z,96007.34
2022-08-05T18:33:24.174Z,96027.22
2022-08-05T18:35:49.479Z,96068.09
2022-08-05T18:37:49.915Z,96082.53
2022-08-05T18:41:50.740Z,96095.28
2022-08-05T18:42:22.725Z,96035.38
2022-08-05T18:44:35.133Z,96122.75
2022-08-05T18:46:50.584Z,96068.09
2022-08-05T18:48:53.647Z,96120.75
2022-08-05T18:52:04.668Z,96127.41
2022-08-05T18:53:43.105Z,96127.47
2022-08-05T18:55:48.768Z,96139.25
2022-08-05T18:57:54.017Z,95972.09
2022-08-05T19:00:13.252Z,96156.22
2022-08-05T19:02:28.210Z,96100.72
2022-08-05T19:04:32.911Z,96156.94
2022-08-05T19:06:44.611Z,96150.63
2022-08-05T19:08:48.397Z,96149.69
2022-08-05T19:10:51.914Z,96139.88
2022-08-05T19:12:56.052Z,96054.16
2022-08-05T19:15:00.722Z,96147.94
2022-08-05T19:17:06.421Z,96097.34
2022-08-05T19:19:10.661Z,96141.66
2022-08-05T19:21:15.843Z,96136.19
2022-08-05T19:24:04.397Z,96158.06
2022-08-05T19:25:43.452Z,96152.13
2022-08-05T19:27:46.656Z,96160.97
2022-08-05T19:29:53.962Z,96160.16
2022-08-05T19:31:59.281Z,96171.44
2022-08-05T19:34:02.115Z,96177.25
2022-08-05T19:36:06.140Z,96180.78
2022-08-05T19:38:09.601Z,96177.41
2022-08-05T19:40:12.754Z,96170.00
2022-08-05T19:42:18.348Z,96160.50
2022-08-05T19:44:45.141Z,96167.91
2022-08-05T19:46:50.653Z,96029.47
2022-08-05T19:48:53.414Z,96178.81
2022-08-05T19:50:56.950Z,96191.94
2022-08-05T19:53:09.332Z,96056.97
2022-08-05T19:56:15.203Z,96201.53
2022-08-05T19:57:49.145Z,96220.44
2022-08-05T20:00:02.504Z,96220.03
2022-08-05T20:02:17.623Z,96221.53
2022-08-05T20:04:20.657Z,96222.47
2022-08-05T20:06:29.025Z,96229.94
2022-08-05T20:08:32.331Z,96223.47
2022-08-05T20:10:35.747Z,96234.56
2022-08-05T20:12:39.728Z,96247.00
2022-08-05T20:14:52.518Z,96245.88
2022-08-05T20:16:58.451Z,96243.34
2022-08-05T20:19:03.049Z,96249.03
2022-08-05T20:21:07.231Z,96243.28
2022-08-05T20:23:10.040Z,96264.06
2022-08-05T20:25:15.257Z,96265.44
2022-08-05T20:27:18.669Z,96250.78
2022-08-05T20:29:27.292Z,96277.31
2022-08-05T20:31:43.112Z,96233.06
2022-08-05T20:33:54.212Z,96258.28
2022-08-05T20:35:58.415Z,96264.81
2022-08-05T20:38:07.648Z,96261.28
2022-08-05T20:40:12.535Z,96256.44
2022-08-05T20:42:15.707Z,96256.13
2022-08-05T20:44:29.922Z,96253.63
2022-08-05T20:46:33.683Z,96260.44
2022-08-05T20:48:36.919Z,96270.88
2022-08-05T20:50:42.568Z,96251.59
2022-08-05T20:52:49.709Z,96274.94
2022-08-05T20:55:15.828Z,96267.06
2022-08-05T20:57:24.728Z,96261.63
2022-08-05T21:00:10.549Z,96275.06
2022-08-05T21:02:03.951Z,96271.59
2022-08-05T21:04:07.202Z,96280.09
2022-08-05T21:06:27.673Z,96286.78
2022-08-05T21:08:41.780Z,96288.31
2022-08-05T21:10:48.539Z,96293.47
2022-08-05T21:13:09.006Z,96290.94
2022-08-05T21:15:15.174Z,96297.00
2022-08-05T21:17:17.978Z,96280.53
2022-08-05T21:19:24.257Z,96234.91
2022-08-05T21:21:27.050Z,96306.91
2022-08-05T21:23:47.810Z,96198.03
2022-08-05T21:25:51.613Z,96320.34
2022-08-05T21:27:58.178Z,96292.84
2022-08-05T21:30:01.768Z,96316.47
2022-08-05T21:32:05.515Z,96310.50
2022-08-05T21:34:08.333Z,96315.91
2022-08-05T21:36:13.548Z,96316.19
2022-08-05T21:38:22.258Z,96330.78
2022-08-05T21:40:26.906Z,96341.69
2022-08-05T21:42:31.017Z,96342.38
2022-08-05T21:44:47.244Z,96340.19
2022-08-05T21:46:50.025Z,96333.97
2022-08-05T21:48:56.749Z,96333.84
2022-08-05T21:50:59.751Z,96334.47
2022-08-05T21:53:04.518Z,96334.91
2022-08-05T21:55:11.524Z,96343.16
2022-08-05T21:57:33.275Z,96354.34
2022-08-05T22:00:01.653Z,96352.16
2022-08-05T22:01:59.323Z,96360.72
2022-08-05T22:04:02.173Z,96358.31
2022-08-05T22:06:06.244Z,96366.59
2022-08-05T22:08:22.125Z,96369.47
2022-08-05T22:10:27.480Z,96372.41
2022-08-05T22:12:32.090Z,96365.69
2022-08-05T22:14:37.960Z,96365.31
2022-08-05T22:16:51.154Z,96377.09
2022-08-05T22:18:58.720Z,96376.03
2022-08-05T22:21:04.190Z,96380.09
2022-08-05T22:24:02.953Z,96391.44
2022-08-05T22:26:10.246Z,96403.97
2022-08-05T22:28:15.766Z,96405.50
2022-08-05T22:30:21.117Z,96384.63
2022-08-05T22:32:24.401Z,96318.03
2022-08-05T22:34:30.135Z,96418.56
2022-08-05T22:36:33.040Z,96414.91
2022-08-05T22:38:35.903Z,96416.38
2022-08-05T22:40:40.415Z,96424.84
2022-08-05T22:42:53.028Z,96423.47
2022-08-05T22:45:02.005Z,96428.06
2022-08-05T22:47:06.570Z,96432.53
2022-08-05T22:49:12.345Z,96432.53
2022-08-05T22:52:06.060Z,96438.81
2022-08-05T22:53:56.217Z,96431.91
2022-08-05T22:55:59.291Z,96438.56
2022-08-05T22:58:02.190Z,96431.47
2022-08-05T23:00:08.850Z,96432.06
2022-08-05T23:02:13.616Z,96429.06
2022-08-05T23:04:19.786Z,96425.66
2022-08-05T23:06:22.617Z,96432.50
2022-08-05T23:08:29.304Z,96432.91
2022-08-05T23:10:32.455Z,96428.56
2022-08-05T23:12:35.228Z,96418.34
2022-08-05T23:14:39.629Z,96421.41
2022-08-05T23:17:05.385Z,96428.78
2022-08-05T23:19:08.583Z,96431.13
2022-08-05T23:21:11.612Z,96385.53
2022-08-05T23:23:19.323Z,96315.88
2022-08-05T23:25:53.156Z,96440.47
2022-08-05T23:28:00.443Z,96441.97
2022-08-05T23:30:04.311Z,96438.72
2022-08-05T23:32:12.772Z,96430.06
2022-08-05T23:34:24.749Z,96415.19
2022-08-05T23:36:28.485Z,96435.91
2022-08-05T23:38:42.838Z,96439.75
2022-08-05T23:40:49.511Z,96443.47
2022-08-05T23:42:53.936Z,96437.81
2022-08-05T23:44:57.077Z,96416.56
2022-08-05T23:47:02.499Z,96431.47
2022-08-05T23:49:23.660Z,96413.19
2022-08-05T23:51:28.226Z,96438.81
2022-08-05T23:53:46.422Z,96434.91
2022-08-05T23:55:49.887Z,96432.78
2022-08-05T23:57:53.361Z,96429.19
